createdAt,value
2023-02-21T00:02:41.242Z,7.03
2023-02-21T00:05:26.990Z,7.46
2023-02-21T00:08:12.218Z,7.08
2023-02-21T00:10:57.255Z,6.84
2023-02-21T00:13:42.164Z,7.30
2023-02-21T00:16:27.425Z,7.27
2023-02-21T00:19:12.604Z,7.47
2023-02-21T00:21:57.406Z,7.47
2023-02-21T00:24:42.361Z,7.53
2023-02-21T00:27:27.613Z,7.36
2023-02-21T00:30:13.015Z,7.19
2023-02-21T00:32:58.473Z,7.39
2023-02-21T00:35:43.603Z,7.54
2023-02-21T00:38:29.455Z,7.37
2023-02-21T00:41:15.051Z,7.18
2023-02-21T00:44:00.494Z,7.25
2023-02-21T00:46:45.770Z,7.46
2023-02-21T00:49:30.976Z,7.45
2023-02-21T00:52:16.195Z,7.35
2023-02-21T00:58:11.150Z,7.13
2023-02-21T01:00:56.300Z,7.41
2023-02-21T01:03:42.789Z,7.47
2023-02-21T01:06:29.935Z,7.43
2023-02-21T01:09:15.841Z,7.43
2023-02-21T01:12:01.244Z,7.40
2023-02-21T01:14:46.587Z,7.09
2023-02-21T01:17:31.943Z,7.30
2023-02-21T01:20:20.230Z,7.51
2023-02-21T01:23:06.203Z,7.47
2023-02-21T01:25:51.681Z,7.48
2023-02-21T01:28:36.598Z,7.63
2023-02-21T01:31:22.121Z,7.60
2023-02-21T01:34:07.291Z,7.64
2023-02-21T01:36:52.543Z,7.57
2023-02-21T01:39:39.458Z,7.32
2023-02-21T01:42:24.625Z,7.52
2023-02-21T01:45:39.279Z,7.48
2023-02-21T01:48:31.428Z,7.42
2023-02-21T01:51:18.266Z,7.62
2023-02-21T01:54:04.166Z,7.60
2023-02-21T01:56:51.153Z,7.58
2023-02-21T01:59:38.519Z,7.48
2023-02-21T02:02:35.922Z,7.55
2023-02-21T02:05:24.394Z,7.55
2023-02-21T02:08:11.185Z,7.48
2023-02-21T02:11:00.734Z,7.46
2023-02-21T02:13:40.134Z,7.64
2023-02-21T02:16:21.063Z,7.64
2023-02-21T02:18:49.318Z,7.60
2023-02-21T02:21:28.165Z,7.63
2023-02-21T02:24:08.389Z,7.60
2023-02-21T02:27:29.199Z,7.63
2023-02-21T02:29:58.877Z,7.63
2023-02-21T02:32:54.950Z,7.63
2023-02-21T02:35:43.842Z,7.67
2023-02-21T02:38:26.159Z,7.64
2023-02-21T02:41:32.989Z,7.65
2023-02-21T02:44:19.626Z,7.52
2023-02-21T02:46:49.030Z,7.44
2023-02-21T02:49:29.621Z,7.68
2023-02-21T02:52:04.064Z,7.42
2023-02-21T02:54:32.291Z,7.64
2023-02-21T02:57:00.575Z,7.65
2023-02-21T02:59:33.186Z,7.49
2023-02-21T03:02:46.072Z,7.67
2023-02-21T03:05:37.494Z,7.68
2023-02-21T03:08:08.880Z,7.72
2023-02-21T03:10:54.353Z,7.71
2023-02-21T03:13:39.752Z,7.44
2023-02-21T03:16:19.263Z,7.52
2023-02-21T03:18:48.565Z,7.71
2023-02-21T03:21:21.985Z,7.75
2023-02-21T03:23:52.848Z,7.74
2023-02-21T03:26:19.730Z,7.56
2023-02-21T03:28:50.568Z,7.70
2023-02-21T03:31:24.765Z,7.36
2023-02-21T03:33:51.673Z,7.70
2023-02-21T03:36:18.490Z,7.65
2023-02-21T03:38:45.249Z,7.79
2023-02-21T03:41:13.262Z,7.76
2023-02-21T03:43:40.193Z,7.53
2023-02-21T03:46:06.924Z,7.83
2023-02-21T03:48:35.078Z,7.80
2023-02-21T03:51:10.731Z,7.60
2023-02-21T03:53:37.772Z,7.62
2023-02-21T03:56:06.139Z,7.81
2023-02-21T03:58:49.046Z,7.81
2023-02-21T04:01:15.979Z,7.85
2023-02-21T04:03:42.829Z,7.57
2023-02-21T04:06:09.486Z,7.86
2023-02-21T04:08:37.181Z,7.92
2023-02-21T04:11:04.351Z,7.51
2023-02-21T04:13:34.131Z,7.97
2023-02-21T04:16:02.239Z,8.00
2023-02-21T04:18:30.009Z,7.96
2023-02-21T04:21:00.221Z,7.90
2023-02-21T04:23:26.891Z,7.92
2023-02-21T04:25:53.549Z,7.80
2023-02-21T04:28:30.100Z,7.76
2023-02-21T04:30:57.030Z,7.68
2023-02-21T04:33:23.901Z,7.71
2023-02-21T04:35:50.841Z,7.68
2023-02-21T04:38:34.546Z,7.36
2023-02-21T04:41:01.225Z,7.57
2023-02-21T04:43:29.387Z,7.59
2023-02-21T04:45:56.155Z,7.54
2023-02-21T04:48:25.249Z,7.23
2023-02-21T04:50:52.139Z,7.41
2023-02-21T04:53:18.766Z,7.58
2023-02-21T04:55:45.367Z,7.22
2023-02-21T04:58:11.929Z,7.29
2023-02-21T05:00:38.582Z,7.59
2023-02-21T05:03:05.258Z,7.61
2023-02-21T05:05:31.811Z,7.56
2023-02-21T05:07:58.405Z,7.56
2023-02-21T05:10:31.054Z,7.67
2023-02-21T05:13:03.395Z,7.45
2023-02-21T05:15:29.979Z,7.76
2023-02-21T05:17:56.640Z,7.78
2023-02-21T05:20:23.207Z,7.81
2023-02-21T05:22:50.081Z,7.69
2023-02-21T05:25:18.455Z,7.84
2023-02-21T05:27:45.935Z,7.82
2023-02-21T05:30:15.668Z,7.74
2023-02-21T05:32:42.508Z,7.70
2023-02-21T05:35:10.316Z,7.74
2023-02-21T05:37:37.152Z,7.80
2023-02-21T05:40:05.304Z,7.78
2023-02-21T05:42:32.806Z,7.83
2023-02-21T05:44:59.513Z,7.63
2023-02-21T05:47:26.179Z,7.75
2023-02-21T05:49:52.778Z,7.79
2023-02-21T05:52:19.412Z,7.59
2023-02-21T05:54:46.052Z,7.85
2023-02-21T05:57:12.649Z,7.76
2023-02-21T05:59:39.650Z,7.72
2023-02-21T06:02:06.310Z,7.88
2023-02-21T06:04:32.969Z,7.91
2023-02-21T06:06:59.602Z,7.90
2023-02-21T06:09:26.415Z,7.93
2023-02-21T06:11:56.809Z,7.92
2023-02-21T06:14:24.149Z,7.94
2023-02-21T06:16:50.847Z,7.82
2023-02-21T06:19:18.839Z,7.92
2023-02-21T06:21:45.718Z,7.94
2023-02-21T06:24:13.142Z,7.69
2023-02-21T06:26:41.124Z,7.70
2023-02-21T06:29:08.160Z,7.90
2023-02-21T06:31:36.210Z,7.83
2023-02-21T06:34:03.180Z,7.96
2023-02-21T06:36:30.106Z,7.75
2023-02-21T06:38:57.508Z,7.93
2023-02-21T06:41:27.149Z,7.92
2023-02-21T06:43:55.419Z,7.99
2023-02-21T06:46:25.087Z,8.03
2023-02-21T06:48:52.498Z,8.07
2023-02-21T06:51:19.508Z,8.11
2023-02-21T06:53:50.048Z,8.09
2023-02-21T06:56:16.907Z,7.86
2023-02-21T06:58:43.499Z,7.96
2023-02-21T07:01:10.281Z,8.10
2023-02-21T07:03:42.947Z,8.01
2023-02-21T07:06:09.474Z,8.14
2023-02-21T07:08:36.126Z,8.02
2023-02-21T07:11:02.859Z,7.99
2023-02-21T07:13:29.415Z,7.93
2023-02-21T07:15:56.028Z,7.97
2023-02-21T07:18:22.740Z,8.14
2023-02-21T07:20:49.648Z,8.17
2023-02-21T07:23:16.462Z,8.18
2023-02-21T07:25:43.067Z,8.17
2023-02-21T07:28:10.507Z,8.17
2023-02-21T07:30:37.208Z,8.19
2023-02-21T07:33:03.815Z,8.21
2023-02-21T07:35:30.333Z,7.85
2023-02-21T07:37:56.856Z,8.11
2023-02-21T07:40:23.480Z,8.38
2023-02-21T07:42:50.154Z,8.41
2023-02-21T07:45:17.108Z,8.49
2023-02-21T07:47:47.881Z,8.14
2023-02-21T07:50:15.953Z,8.26
2023-02-21T07:52:42.624Z,8.62
2023-02-21T07:55:09.293Z,8.53
2023-02-21T07:57:35.992Z,8.52
2023-02-21T08:00:02.904Z,8.62
2023-02-21T08:02:39.983Z,9.13
2023-02-21T08:05:08.063Z,9.29
2023-02-21T08:07:34.890Z,9.33
2023-02-21T08:10:01.548Z,9.55
2023-02-21T08:12:28.162Z,9.72
2023-02-21T08:14:54.769Z,9.63
2023-02-21T08:17:21.302Z,9.70
2023-02-21T08:19:48.050Z,9.65
2023-02-21T08:22:14.695Z,9.45
2023-02-21T08:24:41.386Z,9.84
2023-02-21T08:27:08.176Z,9.86
2023-02-21T08:29:34.764Z,9.97
2023-02-21T08:32:01.690Z,10.71
2023-02-21T08:34:29.756Z,11.14
2023-02-21T08:36:56.795Z,11.56
2023-02-21T08:39:23.779Z,11.72
2023-02-21T08:41:51.220Z,11.91
2023-02-21T08:44:21.689Z,11.22
2023-02-21T08:46:49.719Z,11.66
2023-02-21T08:49:16.536Z,11.36
2023-02-21T08:51:43.308Z,11.73
2023-02-21T08:54:09.918Z,11.95
2023-02-21T08:56:36.560Z,11.38
2023-02-21T08:59:04.490Z,11.16
2023-02-21T09:01:34.221Z,11.78
2023-02-21T09:04:01.992Z,12.05
2023-02-21T09:06:28.684Z,12.34
2023-02-21T09:08:55.332Z,12.18
2023-02-21T09:11:21.952Z,12.96
2023-02-21T09:13:48.504Z,13.23
2023-02-21T09:16:15.143Z,12.80
2023-02-21T09:18:41.806Z,12.81
2023-02-21T09:21:08.461Z,13.30
2023-02-21T09:23:35.098Z,13.16
2023-02-21T09:26:01.709Z,13.37
2023-02-21T09:28:29.359Z,13.52
2023-02-21T09:30:56.024Z,13.62
2023-02-21T09:33:24.849Z,13.84
2023-02-21T09:35:51.836Z,14.26
2023-02-21T09:38:18.438Z,14.45
2023-02-21T09:40:59.957Z,14.68
2023-02-21T09:43:39.198Z,14.53
2023-02-21T09:46:21.436Z,14.41
2023-02-21T09:48:49.260Z,14.90
2023-02-21T09:51:17.306Z,14.91
2023-02-21T09:53:48.263Z,15.55
2023-02-21T09:56:45.868Z,16.33
2023-02-21T09:59:13.487Z,14.43
2023-02-21T10:01:51.947Z,14.61
2023-02-21T10:04:52.617Z,14.77
2023-02-21T10:07:51.846Z,14.81
2023-02-21T10:10:33.352Z,15.70
2023-02-21T10:13:21.900Z,15.25
2023-02-21T10:15:55.903Z,15.86
2023-02-21T10:18:25.233Z,15.18
2023-02-21T10:20:55.150Z,16.19
2023-02-21T10:23:40.481Z,16.39
2023-02-21T10:26:14.295Z,16.83
2023-02-21T10:28:40.907Z,16.69
2023-02-21T10:31:29.844Z,15.91
2023-02-21T10:33:56.686Z,16.67
2023-02-21T10:36:23.565Z,17.15
2023-02-21T10:39:29.244Z,17.63
2023-02-21T10:41:57.907Z,16.96
2023-02-21T10:44:35.718Z,16.11
2023-02-21T10:47:14.348Z,14.65
2023-02-21T10:49:54.904Z,15.43
2023-02-21T10:52:21.642Z,16.27
2023-02-21T10:55:31.822Z,17.18
2023-02-21T10:58:08.629Z,16.96
2023-02-21T11:00:38.693Z,17.18
2023-02-21T11:03:19.128Z,18.39
2023-02-21T11:06:04.028Z,18.01
2023-02-21T11:08:38.055Z,17.20
2023-02-21T11:11:04.971Z,18.03
2023-02-21T11:13:36.793Z,17.68
2023-02-21T11:16:22.167Z,16.96
2023-02-21T11:19:05.821Z,16.68
2023-02-21T11:21:32.941Z,17.50
2023-02-21T11:24:04.343Z,17.88
2023-02-21T11:26:37.054Z,18.80
2023-02-21T11:29:24.600Z,19.29
2023-02-21T11:31:52.873Z,19.92
2023-02-21T11:34:20.236Z,18.76
2023-02-21T11:36:49.516Z,19.40
2023-02-21T11:39:21.608Z,20.25
2023-02-21T11:41:50.884Z,19.91
2023-02-21T11:44:26.467Z,19.26
2023-02-21T11:47:17.752Z,18.77
2023-02-21T11:50:08.576Z,17.55
2023-02-21T11:52:43.370Z,18.69
2023-02-21T11:55:16.558Z,19.42
2023-02-21T11:58:04.867Z,18.43
2023-02-21T12:00:47.106Z,18.54
2023-02-21T12:03:41.317Z,19.44
2023-02-21T12:06:32.882Z,19.57
2023-02-21T12:09:09.342Z,20.92
2023-02-21T12:12:02.403Z,20.68
2023-02-21T12:15:03.657Z,21.16
2023-02-21T12:17:49.148Z,20.44
2023-02-21T12:20:25.815Z,20.62
2023-02-21T12:23:07.501Z,20.58
2023-02-21T12:25:59.057Z,21.05
2023-02-21T12:28:40.647Z,21.25
2023-02-21T12:31:23.893Z,20.26
2023-02-21T12:34:11.864Z,21.56
2023-02-21T12:37:02.587Z,20.52
2023-02-21T12:40:01.074Z,20.91
2023-02-21T12:43:10.665Z,21.10
2023-02-21T12:45:43.166Z,21.81
2023-02-21T12:48:18.065Z,22.90
2023-02-21T12:50:54.512Z,22.11
2023-02-21T12:53:43.502Z,21.96
2023-02-21T12:56:12.117Z,23.25
2023-02-21T12:58:59.419Z,24.00
2023-02-21T13:01:34.191Z,23.96
2023-02-21T13:04:31.340Z,22.88
2023-02-21T13:07:18.891Z,23.54
2023-02-21T13:09:52.112Z,23.59
2023-02-21T13:12:30.530Z,22.87
2023-02-21T13:15:16.465Z,23.92
2023-02-21T13:17:44.745Z,24.54
2023-02-21T13:20:18.343Z,24.53
2023-02-21T13:23:04.709Z,25.50
2023-02-21T13:26:04.776Z,25.48
2023-02-21T13:28:36.583Z,24.16
2023-02-21T13:31:05.721Z,23.23
2023-02-21T13:33:48.689Z,24.66
2023-02-21T13:36:21.726Z,25.25
2023-02-21T13:38:59.823Z,25.18
2023-02-21T13:41:30.059Z,25.74
2023-02-21T13:43:58.416Z,24.22
2023-02-21T13:46:44.972Z,22.76
2023-02-21T13:49:39.561Z,23.83
2023-02-21T13:52:27.275Z,24.42
2023-02-21T13:55:15.222Z,25.16
2023-02-21T13:57:45.984Z,23.73
2023-02-21T14:00:21.729Z,23.59
2023-02-21T14:03:01.719Z,24.13
2023-02-21T14:05:46.974Z,24.08
2023-02-21T14:08:26.847Z,22.68
2023-02-21T14:11:05.705Z,24.00
2023-02-21T14:13:38.350Z,24.82
2023-02-21T14:16:08.174Z,24.96
2023-02-21T14:18:52.548Z,24.51
2023-02-21T14:21:22.005Z,24.16
2023-02-21T14:24:10.271Z,23.78
2023-02-21T14:26:48.789Z,24.39
2023-02-21T14:29:36.510Z,23.56
2023-02-21T14:32:03.616Z,23.96
2023-02-21T14:34:48.765Z,24.27
2023-02-21T14:37:32.607Z,24.07
2023-02-21T14:40:09.389Z,24.52
2023-02-21T14:43:19.243Z,23.48
2023-02-21T14:46:10.553Z,21.73
2023-02-21T14:48:56.283Z,20.87
2023-02-21T14:51:43.963Z,20.76
2023-02-21T14:54:21.363Z,20.89
2023-02-21T14:57:16.000Z,20.09
2023-02-21T14:59:45.585Z,20.03
2023-02-21T15:02:18.511Z,20.32
2023-02-21T15:05:00.281Z,20.96
2023-02-21T15:07:48.683Z,21.39
2023-02-21T15:10:15.217Z,21.98
2023-02-21T15:13:03.105Z,22.31
2023-02-21T15:15:40.338Z,22.28
2023-02-21T15:18:26.348Z,22.02
2023-02-21T15:21:07.726Z,22.49
2023-02-21T15:23:35.003Z,23.24
2023-02-21T15:26:21.825Z,23.16
2023-02-21T15:29:23.867Z,23.31
2023-02-21T15:31:54.616Z,23.04
2023-02-21T15:34:33.357Z,23.40
2023-02-21T15:37:17.072Z,23.47
2023-02-21T15:39:55.476Z,22.67
2023-02-21T15:42:23.657Z,22.66
2023-02-21T15:44:58.910Z,23.11
2023-02-21T15:47:28.635Z,23.26
2023-02-21T15:50:07.512Z,23.44
2023-02-21T15:52:40.561Z,23.75
2023-02-21T15:55:14.709Z,23.25
2023-02-21T15:57:41.493Z,22.88
2023-02-21T16:00:27.799Z,22.49
2023-02-21T16:03:26.437Z,22.52
2023-02-21T16:05:55.661Z,21.83
2023-02-21T16:08:22.928Z,21.58
2023-02-21T16:10:49.835Z,21.15
2023-02-21T16:13:16.516Z,20.76
2023-02-21T16:15:43.433Z,20.37
2023-02-21T16:18:16.641Z,20.33
2023-02-21T16:20:43.596Z,20.10
2023-02-21T16:23:24.701Z,19.83
2023-02-21T16:26:22.065Z,19.41
2023-02-21T16:28:48.782Z,18.96
2023-02-21T16:31:23.971Z,18.62
2023-02-21T16:33:51.182Z,18.06
2023-02-21T16:36:29.840Z,18.10
2023-02-21T16:38:57.993Z,17.30
2023-02-21T16:41:25.105Z,17.33
2023-02-21T16:43:51.767Z,17.21
2023-02-21T16:46:27.695Z,17.21
2023-02-21T16:48:56.253Z,16.92
2023-02-21T16:51:22.953Z,16.22
2023-02-21T16:53:49.479Z,16.04
2023-02-21T16:56:16.504Z,15.81
2023-02-21T16:58:47.054Z,15.86
2023-02-21T17:01:34.656Z,15.53
2023-02-21T17:04:06.708Z,14.79
2023-02-21T17:06:34.556Z,14.67
2023-02-21T17:09:01.654Z,14.97
2023-02-21T17:11:28.381Z,14.48
2023-02-21T17:13:55.008Z,14.15
2023-02-21T17:16:21.873Z,14.49
2023-02-21T17:18:48.533Z,13.81
2023-02-21T17:21:15.369Z,14.12
2023-02-21T17:23:42.457Z,13.60
2023-02-21T17:26:09.055Z,14.04
2023-02-21T17:28:39.019Z,14.00
2023-02-21T17:31:05.771Z,14.05
2023-02-21T17:33:32.518Z,13.78
2023-02-21T17:35:59.153Z,13.34
2023-02-21T17:38:25.857Z,13.16
2023-02-21T17:40:53.614Z,13.66
2023-02-21T17:43:20.434Z,13.31
2023-02-21T17:45:47.025Z,13.13
2023-02-21T17:48:13.598Z,13.07
2023-02-21T17:50:40.264Z,13.44
2023-02-21T17:53:08.769Z,13.01
2023-02-21T17:55:35.465Z,13.30
2023-02-21T17:58:02.135Z,13.19
2023-02-21T18:00:30.389Z,12.98
2023-02-21T18:02:57.061Z,13.00
2023-02-21T18:05:23.908Z,12.79
2023-02-21T18:07:52.395Z,12.86
2023-02-21T18:10:21.271Z,12.04
2023-02-21T18:12:50.780Z,12.25
2023-02-21T18:15:19.868Z,12.18
2023-02-21T18:17:46.564Z,12.66
2023-02-21T18:20:15.450Z,12.51
2023-02-21T18:22:42.343Z,12.62
2023-02-21T18:25:08.982Z,12.40
2023-02-21T18:27:36.552Z,12.31
2023-02-21T18:30:04.333Z,11.93
2023-02-21T18:32:31.284Z,12.26
2023-02-21T18:34:59.748Z,11.72
2023-02-21T18:37:26.980Z,12.10
2023-02-21T18:39:54.363Z,11.98
2023-02-21T18:42:23.977Z,12.05
2023-02-21T18:44:51.984Z,11.96
2023-02-21T18:47:19.472Z,11.59
2023-02-21T18:49:47.741Z,11.56
2023-02-21T18:52:16.616Z,11.69
2023-02-21T18:54:49.616Z,11.81
2023-02-21T18:57:21.253Z,11.82
2023-02-21T18:59:48.566Z,11.83
2023-02-21T19:02:17.349Z,11.68
2023-02-21T19:04:44.569Z,11.27
2023-02-21T19:07:13.366Z,11.61
2023-02-21T19:09:40.512Z,11.52
2023-02-21T19:12:10.046Z,11.19
2023-02-21T19:14:37.435Z,11.54
2023-02-21T19:17:06.979Z,11.35
2023-02-21T19:19:34.409Z,11.49
2023-02-21T19:22:01.002Z,10.87
2023-02-21T19:24:27.622Z,10.81
2023-02-21T19:26:54.305Z,11.30
2023-02-21T19:29:21.166Z,11.18
2023-02-21T19:31:48.557Z,11.17
2023-02-21T19:34:15.390Z,10.48
2023-02-21T19:36:42.186Z,10.60
2023-02-21T19:39:09.907Z,10.96
2023-02-21T19:41:36.708Z,10.35
2023-02-21T19:44:04.208Z,10.77
2023-02-21T19:46:31.020Z,10.12
2023-02-21T19:48:57.752Z,10.58
2023-02-21T19:51:26.713Z,10.01
2023-02-21T19:53:53.733Z,10.45
2023-02-21T19:56:20.384Z,9.96
2023-02-21T19:58:47.324Z,10.10
2023-02-21T20:01:14.414Z,10.38
2023-02-21T20:03:42.080Z,10.35
2023-02-21T20:06:08.816Z,9.93
2023-02-21T20:08:35.548Z,9.94
2023-02-21T20:11:02.201Z,9.64
2023-02-21T20:13:28.763Z,9.93
2023-02-21T20:15:55.355Z,9.75
2023-02-21T20:18:21.960Z,9.91
2023-02-21T20:20:49.555Z,9.55
2023-02-21T20:23:18.042Z,9.43
2023-02-21T20:25:44.910Z,9.85
2023-02-21T20:28:11.561Z,9.21
2023-02-21T20:30:38.465Z,9.53
2023-02-21T20:33:06.839Z,9.15
2023-02-21T20:35:33.619Z,9.25
2023-02-21T20:38:05.174Z,9.61
2023-02-21T20:40:33.074Z,9.52
2023-02-21T20:42:59.789Z,9.66
2023-02-21T20:45:26.523Z,9.14
2023-02-21T20:47:53.212Z,9.43
2023-02-21T20:50:22.014Z,9.62
2023-02-21T20:52:48.817Z,9.66
2023-02-21T20:55:18.629Z,9.85
2023-02-21T20:57:45.908Z,9.92
2023-02-21T21:00:14.764Z,9.94
2023-02-21T21:02:41.946Z,9.88
2023-02-21T21:05:18.858Z,9.80
2023-02-21T21:07:46.068Z,9.23
2023-02-21T21:10:15.939Z,9.23
2023-02-21T21:12:43.232Z,9.77
2023-02-21T21:15:12.690Z,9.81
2023-02-21T21:17:39.354Z,9.42
2023-02-21T21:20:14.415Z,9.90
2023-02-21T21:22:41.695Z,9.83
2023-02-21T21:25:09.324Z,9.95
2023-02-21T21:27:37.272Z,9.87
2023-02-21T21:30:06.638Z,9.91
2023-02-21T21:32:34.397Z,9.31
2023-02-21T21:35:06.672Z,10.09
2023-02-21T21:37:35.075Z,10.03
2023-02-21T21:40:16.320Z,10.06
2023-02-21T21:42:45.748Z,9.75
2023-02-21T21:45:19.756Z,9.89
2023-02-21T21:47:47.546Z,9.96
2023-02-21T21:50:15.605Z,10.18
2023-02-21T21:52:50.263Z,10.07
2023-02-21T21:55:28.745Z,9.99
2023-02-21T21:57:56.398Z,9.99
2023-02-21T22:00:26.417Z,10.03
2023-02-21T22:02:57.389Z,10.08
2023-02-21T22:05:30.353Z,9.71
2023-02-21T22:07:58.692Z,10.11
2023-02-21T22:10:26.546Z,10.15
2023-02-21T22:12:54.493Z,9.87
2023-02-21T22:15:24.072Z,9.85
2023-02-21T22:17:51.123Z,10.02
2023-02-21T22:20:20.214Z,10.09
2023-02-21T22:22:49.519Z,10.02
2023-02-21T22:25:21.291Z,9.64
2023-02-21T22:27:48.579Z,10.21
2023-02-21T22:30:18.318Z,9.87
2023-02-21T22:32:46.620Z,10.18
2023-02-21T22:38:02.334Z,10.04
2023-02-21T22:40:30.791Z,10.30
2023-02-21T22:43:00.131Z,10.24
2023-02-21T22:45:29.209Z,10.02
2023-02-21T22:47:57.568Z,9.64
2023-02-21T22:50:25.534Z,10.16
2023-02-21T22:52:54.818Z,10.16
2023-02-21T22:55:26.347Z,9.71
2023-02-21T22:57:55.060Z,10.06
2023-02-21T23:00:32.811Z,10.13
2023-02-21T23:03:12.648Z,10.18
2023-02-21T23:05:48.170Z,9.85
2023-02-21T23:08:23.046Z,10.27
2023-02-21T23:10:50.088Z,10.02
2023-02-21T23:13:21.014Z,10.31
2023-02-21T23:15:47.850Z,10.28
2023-02-21T23:18:20.386Z,10.43
2023-02-21T23:20:49.495Z,10.28
2023-02-21T23:23:16.133Z,10.41
2023-02-21T23:25:42.829Z,10.17
2023-02-21T23:28:12.126Z,10.48
2023-02-21T23:30:43.569Z,10.17
2023-02-21T23:33:30.253Z,10.52
2023-02-21T23:35:57.500Z,10.18
2023-02-21T23:38:27.839Z,10.47
2023-02-21T23:40:56.947Z,10.50
2023-02-21T23:43:29.875Z,10.32
2023-02-21T23:45:58.302Z,10.35
2023-02-21T23:48:24.944Z,10.47
2023-02-21T23:50:51.882Z,10.11
2023-02-21T23:53:22.566Z,10.38
2023-02-21T23:55:49.570Z,9.98
2023-02-21T23:58:19.178Z,10.24
